Chadstone Weather > Observations for 08/03/21

Select Day:



Observations
Time Temp Hum DP Wind Gust Dir Rain >9am Press
C % C kph kph mm hPa
00:00 20.1 63 12.8 0.3 5.0 WSW 0.0 994.8
00:10 20.1 63 12.8 0.0 2.5 S 0.0 994.3
00:20 20.0 64 13.0 0.0 2.5 WSW 0.0 994.8
00:30 19.8 64 12.8 0.0 1.1 SW 0.0 994.1
00:40 19.7 64 12.7 0.0 0.0 N 0.0 994.2
00:50 19.6 64 12.6 0.0 0.0 N 0.0 994.0
01:00 19.5 64 12.5 0.0 0.0 N 0.0 993.4
01:10 19.3 64 12.3 0.0 1.1 SSE 0.0 993.6
01:20 19.3 64 12.3 0.0 0.0 N 0.0 993.2
01:30 19.3 64 12.3 0.1 2.5 WSW 0.0 993.7
01:40 19.3 67 13.0 0.4 3.6 W 0.0 994.2
01:50 20.0 71 14.6 1.2 3.6 W 0.0 994.7
02:00 20.1 73 15.1 1.2 6.1 WSW 0.0 995.0
02:10 20.1 74 15.3 1.1 6.1 SW 0.0 994.8
02:20 19.9 75 15.4 0.0 2.5 WSW 0.0 993.9
02:30 19.7 77 15.6 0.2 3.6 SW 0.0 994.0
02:40 19.7 78 15.8 0.7 3.6 SW 0.0 994.6
02:50 19.5 78 15.6 0.1 5.0 W 0.0 993.8
03:00 19.3 79 15.6 0.1 3.6 WSW 0.0 993.7
03:10 19.3 80 15.8 0.7 3.6 SW 0.0 994.4
03:20 19.3 80 15.8 1.3 5.0 SW 0.0 993.7
03:30 19.3 81 16.0 1.1 6.1 SW 0.0 993.7
03:40 19.2 82 16.1 1.4 6.1 SSW 0.0 994.2
03:50 19.2 83 16.3 0.6 5.0 WSW 0.0 993.4
04:00 19.2 84 16.4 0.9 3.6 SW 0.0 993.8
04:10 19.0 84 16.2 0.9 5.0 W 0.0 993.7
04:20 18.9 86 16.5 0.7 3.6 SW 0.0 993.2
04:30 19.0 85 16.4 0.6 3.6 SW 0.0 993.9
04:40 18.9 86 16.5 0.8 5.0 SSW 0.0 992.8
04:50 18.6 86 16.2 3.5 11.2 NW 0.0 993.4
05:00 18.6 87 16.4 1.2 6.1 W 0.0 993.7
05:10 18.6 87 16.4 1.2 5.0 W 0.0 993.2
05:20 18.7 88 16.7 0.8 3.6 WSW 0.0 993.8
05:30 18.6 87 16.4 0.3 2.5 SW 0.0 993.4
05:40 18.6 87 16.4 0.6 3.6 SE 0.0 993.7
05:50 18.5 87 16.3 2.0 5.0 N 0.0 993.2
06:00 18.3 87 16.1 0.1 2.5 SW 0.0 993.4
06:10 18.2 88 16.2 0.0 2.5 SW 0.0 993.2
06:20 18.2 88 16.2 0.1 2.5 SW 0.0 993.2
06:30 18.2 88 16.2 0.0 0.0 N 0.0 993.8
06:40 18.2 88 16.2 0.0 0.0 N 0.0 993.4
06:50 18.3 88 16.3 0.0 0.0 N 0.0 993.9
07:00 18.3 88 16.3 0.0 0.0 N 0.0 993.4
07:10 18.3 88 16.3 0.1 1.1 N 0.0 993.8
07:20 18.2 88 16.2 0.0 0.0 N 0.0 993.7
07:30 18.2 88 16.2 0.1 2.5 SW 0.0 993.6
07:40 18.3 89 16.5 0.3 3.6 SW 0.0 993.5
07:50 18.4 89 16.6 1.2 3.6 WSW 0.0 993.3
08:00 18.4 88 16.4 0.5 5.0 SW 0.0 993.4
08:10 18.4 88 16.4 0.6 5.0 WSW 0.0 993.5
08:20 18.4 88 16.4 0.7 3.6 WSW 0.0 993.4
08:30 18.5 88 16.5 0.6 3.6 WSW 0.0 993.5
08:40 18.7 88 16.7 1.9 8.6 WNW 0.0 993.6
08:50 18.8 88 16.8 1.9 8.6 W 0.0 993.6
09:00 18.8 88 16.8 2.7 7.2 WNW 0.0 993.7
09:10 18.9 89 17.1 2.8 9.7 W 0.0 993.8
09:20 18.9 89 17.1 1.0 5.0 WSW 0.0 993.7
09:30 18.7 90 17.0 0.0 2.5 SSW 0.0 993.7
09:40 18.5 90 16.8 0.1 3.6 S 0.0 993.8
09:50 18.4 91 16.9 0.5 5.0 SW 0.0 993.9
10:00 18.5 91 17.0 0.0 1.1 S 0.0 994.1
10:10 18.4 91 16.9 0.3 3.6 S 0.0 993.9
10:20 18.3 91 16.8 1.3 7.2 S 0.0 993.9
10:30 18.2 90 16.5 0.2 3.6 SSW 0.0 993.9
10:40 18.5 89 16.7 1.3 6.1 SSW 0.0 994.0
10:50 19.1 87 16.9 2.0 6.1 WSW 0.0 994.2
11:00 19.6 85 17.0 1.8 6.1 WNW 0.0 994.3
11:10 19.9 83 16.9 1.4 6.1 WNW 0.0 994.2
11:20 20.1 80 16.6 1.7 11.2 W 0.0 994.4
11:30 20.2 78 16.3 3.2 8.6 NW 0.0 994.2
11:40 20.2 76 15.8 5.0 11.2 W 0.0 994.3
11:50 20.2 74 15.4 3.3 9.7 W 0.3 994.3
12:00 20.9 75 16.3 3.0 11.2 W 0.3 994.2
12:10 21.2 72 16.0 4.0 11.2 SSW 0.3 994.1
12:20 20.7 74 15.9 3.3 8.6 WSW 0.3 994.0
12:30 20.4 75 15.8 0.5 3.6 SW 0.3 993.9
12:40 20.3 77 16.1 2.3 6.1 W 0.3 994.0
12:50 20.1 78 16.2 1.4 7.2 WSW 0.3 993.8
13:00 20.1 79 16.4 1.0 5.0 WSW 0.3 993.8
13:10 20.0 81 16.7 1.0 5.0 WSW 0.3 993.7
13:20 20.1 82 16.9 1.0 5.0 SW 0.3 993.6
13:30 20.2 82 17.0 0.5 5.0 SW 0.3 993.5
13:40 20.2 81 16.8 0.5 5.0 S 0.3 993.4
13:50 20.6 81 17.2 0.8 3.6 WSW 0.3 993.4
14:00 20.6 80 17.0 0.5 5.0 WSW 0.3 993.4
14:10 20.6 80 17.0 1.1 6.1 SW 0.3 993.3
14:20 20.3 80 16.8 0.6 6.1 S 0.3 993.3
14:30 20.2 82 17.0 1.3 5.0 S 0.3 993.4
14:40 20.0 80 16.5 0.3 3.6 S 0.3 993.2
14:50 20.0 81 16.7 0.8 6.1 SW 0.3 993.2
15:00 19.7 84 16.9 1.0 5.0 SW 0.6 993.2
15:10 18.8 85 16.2 1.9 6.1 S 0.6 993.2
15:20 18.4 86 16.0 0.9 8.6 SW 0.6 993.3
15:30 18.5 86 16.1 2.2 8.6 SSW 0.6 993.4
15:40 18.4 87 16.2 1.1 7.2 SSW 0.6 993.3
15:50 18.3 88 16.3 1.3 8.6 WSW 0.6 993.3
16:00 18.0 89 16.2 1.1 7.2 SW 0.6 993.3
16:10 17.9 90 16.2 0.9 6.1 W 0.9 993.5
16:20 17.9 90 16.2 0.6 6.1 SSW 0.9 993.5
16:30 17.7 90 16.1 1.5 8.6 SE 0.9 993.6
16:40 17.6 91 16.1 2.1 7.2 S 0.9 993.5
16:50 17.4 91 15.9 2.6 15.8 WSW 0.9 993.5
17:00 17.2 91 15.7 1.8 8.6 S 0.9 993.7
17:10 17.0 92 15.7 2.7 8.6 SSW 0.9 993.6
17:20 17.0 92 15.7 1.8 7.2 WNW 0.9 993.7
17:30 17.0 92 15.7 1.6 8.6 S 0.9 993.9
17:40 16.9 94 15.9 1.7 6.1 SSE 0.9 994.0
17:50 16.6 94 15.6 2.6 12.2 SSW 1.2 994.1
18:00 16.4 94 15.4 1.7 9.7 S 1.2 994.2
18:10 16.3 95 15.5 2.2 9.7 S 1.2 994.5
18:20 16.2 95 15.4 1.6 7.2 SSE 1.2 994.5
18:30 16.0 95 15.2 1.9 7.2 WNW 1.2 994.5
18:40 16.0 95 15.2 1.9 8.6 SSE 1.2 994.6
18:50 16.1 95 15.3 1.5 7.2 S 1.2 994.6
19:00 16.1 95 15.3 2.2 8.6 S 1.2 994.8
19:10 15.8 96 15.2 1.4 9.7 SW 1.2 995.0
19:20 15.5 96 14.9 1.6 7.2 WSW 1.2 995.0
19:30 15.5 96 14.9 0.2 3.6 SW 1.2 995.2
19:40 15.6 96 15.0 0.6 7.2 S 1.2 995.3
19:50 15.8 96 15.2 0.2 3.6 S 1.2 995.3
20:00 15.8 96 15.2 0.0 2.5 SW 1.2 995.4
20:10 15.9 96 15.3 0.0 0.0 N 1.2 995.6
20:20 16.0 95 15.2 0.0 0.0 N 1.2 995.7
20:30 16.0 95 15.2 0.0 0.0 N 1.2 996.0
20:40 16.1 95 15.3 0.0 0.0 N 1.2 996.2
20:50 16.2 95 15.4 0.3 5.0 WSW 1.2 996.3
21:00 16.2 95 15.4 0.4 6.1 W 1.2 996.4
21:10 16.1 95 15.3 1.0 5.0 W 1.2 996.7
21:20 16.1 95 15.3 0.0 1.1 SSW 1.2 996.7
21:30 16.2 95 15.4 0.0 0.0 N 1.5 996.8
21:40 16.2 94 15.2 0.0 1.1 N 1.5 996.9
21:50 16.2 94 15.2 0.0 0.0 N 1.5 996.9
22:00 16.3 94 15.3 0.0 1.1 N 1.5 996.9
22:10 16.3 94 15.3 0.1 3.6 NW 2.1 998.1
22:20 16.6 94 15.6 0.9 5.0 N 2.1 998.6
22:30 16.5 94 15.5 0.4 3.6 WNW 2.4 998.1
22:40 16.6 94 15.6 0.1 2.5 SSW 5.1 997.8
22:50 16.6 95 15.8 0.5 6.1 SSW 5.7 997.9
23:00 16.5 95 15.7 0.1 2.5 SSE 5.7 997.2
23:10 16.5 95 15.7 0.0 0.0 N 5.7 997.8
23:20 16.4 95 15.6 0.1 3.6 SSW 5.7 997.3
23:30 16.5 96 15.9 0.0 0.0 N 5.7 997.5
23:40 16.3 96 15.7 0.1 2.5 SW 5.7 997.1
23:50 16.2 96 15.6 0.7 6.1 SW 6.3 997.5